Time;durP1;ratioP1;P1;durP2;ratioP2;P2;SDS_P1;SDS_P2;PMS_P1;PMS_P2;Temp;Humidity;BMP_temperature;BMP_pressure;BME280_temperature;BME280_humidity;BME280_pressure;Samples;Min_cycle;Max_cycle;Signal;HPM_P1;HPM_P2
2023/09/02 00:00:28;;;;;;;7.82;5.72;;;13.50;99.90;;;;;;5091356;28;20048;-76
2023/09/02 00:02:54;;;;;;;10.57;5.80;;;13.60;99.90;;;;;;5081569;28;20071;-76
2023/09/02 00:05:20;;;;;;;12.30;6.65;;;13.50;99.90;;;;;;5072198;28;20113;-76
2023/09/02 00:07:45;;;;;;;9.50;6.60;;;13.50;99.90;;;;;;5081806;28;20051;-77
2023/09/02 00:10:12;;;;;;;10.38;6.35;;;13.50;99.90;;;;;;5084074;28;20107;-76
2023/09/02 00:12:38;;;;;;;8.07;6.00;;;13.50;99.90;;;;;;5087175;28;20048;-76
2023/09/02 00:15:04;;;;;;;9.57;6.30;;;13.50;99.90;;;;;;5092749;28;20039;-76
2023/09/02 00:17:31;;;;;;;10.45;6.63;;;13.50;99.90;;;;;;5089063;28;20036;-76
2023/09/02 00:19:57;;;;;;;10.07;6.38;;;13.50;99.90;;;;;;5090776;28;20121;-76
2023/09/02 00:22:23;;;;;;;9.75;6.78;;;13.50;99.90;;;;;;5084671;28;20076;-75
2023/09/02 00:24:48;;;;;;;9.32;5.85;;;13.50;99.90;;;;;;5074564;28;20040;-76
2023/09/02 00:27:14;;;;;;;9.88;5.85;;;13.40;99.90;;;;;;5087431;28;20044;-77
2023/09/02 00:29:40;;;;;;;9.40;5.82;;;13.50;99.90;;;;;;5076690;28;20041;-75
2023/09/02 00:32:05;;;;;;;9.02;5.50;;;13.50;99.90;;;;;;5092818;28;20039;-75
2023/09/02 00:34:31;;;;;;;7.97;6.00;;;13.40;99.90;;;;;;5088177;28;20474;-76
2023/09/02 00:36:57;;;;;;;8.00;5.45;;;13.40;99.90;;;;;;5079389;28;20040;-75
2023/09/02 00:39:23;;;;;;;8.88;5.93;;;13.40;99.90;;;;;;5117358;27;20458;-75
2023/09/02 00:41:51;;;;;;;7.68;5.47;;;13.40;99.90;;;;;;5085169;28;20075;-75
2023/09/02 00:44:17;;;;;;;7.78;5.57;;;13.40;99.90;;;;;;5077129;28;20036;-76
2023/09/02 00:46:43;;;;;;;7.90;5.60;;;13.50;99.90;;;;;;5077311;28;20047;-76
2023/09/02 00:49:09;;;;;;;7.57;5.93;;;13.40;99.90;;;;;;5078507;28;20041;-76
2023/09/02 00:51:35;;;;;;;7.80;5.65;;;13.40;99.90;;;;;;5085804;28;20036;-75
2023/09/02 00:54:01;;;;;;;9.18;5.45;;;13.40;99.90;;;;;;5089183;28;20039;-75
2023/09/02 00:56:28;;;;;;;8.93;6.07;;;13.30;99.90;;;;;;5081201;28;20040;-75
2023/09/02 00:58:59;;;;;;;10.27;6.00;;;13.40;99.90;;;;;;5088507;28;20063;-76
2023/09/02 01:01:26;;;;;;;10.40;6.15;;;13.30;99.90;;;;;;5080630;28;20089;-76
2023/09/02 01:03:52;;;;;;;9.63;5.82;;;13.30;99.90;;;;;;5086270;28;20101;-76
2023/09/02 01:06:19;;;;;;;8.75;6.88;;;13.30;99.90;;;;;;5081516;28;20120;-76
2023/09/02 01:08:45;;;;;;;11.07;6.40;;;13.40;99.90;;;;;;5090619;28;20040;-76
2023/09/02 01:11:11;;;;;;;10.88;7.18;;;13.30;99.90;;;;;;5091074;28;20032;-76
2023/09/02 01:13:36;;;;;;;9.98;6.95;;;13.30;99.90;;;;;;5093290;28;20086;-76
2023/09/02 01:16:02;;;;;;;12.10;6.80;;;13.30;99.90;;;;;;5081744;28;20097;-76
2023/09/02 01:18:28;;;;;;;11.25;6.85;;;13.30;99.90;;;;;;5090130;28;20040;-76
2023/09/02 01:21:19;;;;;;;11.18;7.15;;;13.30;99.90;;;;;;5083163;28;20044;-75
2023/09/02 01:24:31;;;;;;;9.15;7.00;;;13.30;99.90;;;;;;5093612;28;20540;-76
2023/09/02 01:27:18;;;;;;;10.10;7.32;;;13.30;99.90;;;;;;5078643;28;20040;-76
2023/09/02 01:30:04;;;;;;;10.55;7.32;;;13.20;99.90;;;;;;5088885;28;20052;-76
2023/09/02 01:32:38;;;;;;;13.05;6.97;;;13.20;99.90;;;;;;5079412;28;20119;-76
2023/09/02 01:35:06;;;;;;;13.88;7.78;;;13.20;99.90;;;;;;5093124;28;20555;-75
2023/09/02 01:37:42;;;;;;;13.50;7.10;;;13.20;99.90;;;;;;5088254;28;20383;-76
2023/09/02 01:40:10;;;;;;;13.05;7.18;;;13.20;99.90;;;;;;5086690;28;20055;-76
2023/09/02 01:42:37;;;;;;;14.00;7.75;;;13.10;99.90;;;;;;5073005;28;20055;-76
2023/09/02 01:45:03;;;;;;;11.05;7.57;;;13.10;99.90;;;;;;5087947;28;20040;-76
2023/09/02 01:47:29;;;;;;;10.05;8.00;;;13.10;99.90;;;;;;5088194;28;20036;-76
2023/09/02 01:49:56;;;;;;;11.57;8.23;;;13.10;99.90;;;;;;5059332;28;20051;-76
2023/09/02 01:52:22;;;;;;;13.23;8.52;;;13.10;99.90;;;;;;5119621;27;20085;-76
2023/09/02 01:54:50;;;;;;;11.70;7.75;;;13.10;99.90;;;;;;5089112;28;20058;-76
2023/09/02 01:57:16;;;;;;;10.95;8.15;;;13.10;99.90;;;;;;5085087;28;20036;-76
2023/09/02 01:59:42;;;;;;;12.75;7.70;;;13.10;99.90;;;;;;5089096;28;20067;-76
2023/09/02 02:02:08;;;;;;;13.07;8.10;;;13.10;99.90;;;;;;5087568;28;20148;-76
2023/09/02 02:04:36;;;;;;;14.73;9.23;;;13.10;99.90;;;;;;5108662;27;20047;-76
2023/09/02 02:07:08;;;;;;;12.73;8.48;;;13.00;99.90;;;;;;5086865;28;20047;-76
2023/09/02 02:09:41;;;;;;;13.82;8.32;;;13.00;99.90;;;;;;5081955;28;20058;-76
2023/09/02 02:12:08;;;;;;;13.85;8.30;;;13.00;99.90;;;;;;5092864;28;20497;-76
2023/09/02 02:14:34;;;;;;;10.73;7.57;;;13.00;99.90;;;;;;5081410;28;20105;-76
2023/09/02 02:17:01;;;;;;;12.52;8.50;;;13.00;99.90;;;;;;5089658;28;20522;-76
2023/09/02 02:19:27;;;;;;;12.82;8.40;;;13.00;99.90;;;;;;5120536;27;20512;-77
2023/09/02 02:21:52;;;;;;;12.50;8.10;;;12.90;99.90;;;;;;5087692;28;20064;-76
2023/09/02 02:24:18;;;;;;;12.27;9.05;;;12.90;99.90;;;;;;5075441;28;20052;-76
2023/09/02 02:26:44;;;;;;;11.10;7.70;;;12.90;99.90;;;;;;5084442;28;20089;-76
2023/09/02 02:29:10;;;;;;;12.02;8.10;;;12.90;99.90;;;;;;5081867;28;20076;-76
2023/09/02 02:31:36;;;;;;;11.73;8.18;;;12.90;99.90;;;;;;5081881;28;20157;-77
2023/09/02 02:34:03;;;;;;;14.73;9.88;;;12.90;99.90;;;;;;5095958;28;20036;-77
2023/09/02 02:36:29;;;;;;;16.05;12.00;;;12.90;99.90;;;;;;5092477;28;20441;-76
2023/09/02 02:38:54;;;;;;;18.50;11.13;;;12.90;99.90;;;;;;5092321;28;20054;-76
2023/09/02 02:41:20;;;;;;;16.85;10.20;;;12.90;99.90;;;;;;5093540;28;20043;-76
2023/09/02 02:43:46;;;;;;;13.18;9.52;;;12.80;99.90;;;;;;5090327;28;20119;-76
2023/09/02 02:46:11;;;;;;;14.63;9.63;;;12.80;99.90;;;;;;5083677;28;20379;-76
2023/09/02 02:48:37;;;;;;;16.35;10.50;;;12.80;99.90;;;;;;5099702;28;20040;-76
2023/09/02 02:51:03;;;;;;;17.05;10.65;;;12.80;99.90;;;;;;5082523;28;20047;-76
2023/09/02 02:53:29;;;;;;;16.70;11.27;;;12.70;99.90;;;;;;5087906;28;20037;-76
2023/09/02 02:55:54;;;;;;;16.85;11.07;;;12.80;99.90;;;;;;5094227;28;20044;-76
2023/09/02 02:58:21;;;;;;;16.25;10.98;;;12.70;99.90;;;;;;5087688;28;20078;-76
2023/09/02 03:00:50;;;;;;;16.70;10.73;;;12.70;99.90;;;;;;5084900;28;20041;-76
2023/09/02 03:03:15;;;;;;;15.82;10.60;;;12.70;99.90;;;;;;5074202;28;20045;-76
2023/09/02 03:05:42;;;;;;;13.88;10.38;;;12.70;99.90;;;;;;5070054;28;20044;-76
2023/09/02 03:08:09;;;;;;;17.88;10.93;;;12.70;99.90;;;;;;5078967;28;20044;-76
2023/09/02 03:10:35;;;;;;;15.35;10.80;;;12.70;99.90;;;;;;5079906;28;20048;-75
2023/09/02 03:13:02;;;;;;;18.77;11.68;;;12.70;99.90;;;;;;5089390;28;20045;-76
2023/09/02 03:15:28;;;;;;;18.02;11.35;;;12.70;99.90;;;;;;5078143;28;20040;-76
2023/09/02 03:17:53;;;;;;;16.48;10.73;;;12.60;99.90;;;;;;5088683;28;20122;-77
2023/09/02 03:20:20;;;;;;;18.98;11.25;;;12.70;99.90;;;;;;5091712;28;20033;-77
2023/09/02 03:22:46;;;;;;;14.35;10.25;;;12.60;99.90;;;;;;5099041;28;20055;-76
2023/09/02 03:25:12;;;;;;;12.82;9.02;;;12.60;99.90;;;;;;5085609;28;20406;-76
2023/09/02 03:27:40;;;;;;;14.63;10.27;;;12.60;99.90;;;;;;5083387;28;20413;-75
2023/09/02 03:30:07;;;;;;;14.93;11.15;;;12.60;99.90;;;;;;5077970;28;20041;-75
2023/09/02 03:32:34;;;;;;;17.70;11.13;;;12.60;99.90;;;;;;5082480;28;20066;-75
2023/09/02 03:34:59;;;;;;;18.55;10.50;;;12.70;99.90;;;;;;5088609;28;20116;-75
2023/09/02 03:37:26;;;;;;;16.42;9.50;;;12.60;99.90;;;;;;5080437;28;20123;-75
2023/09/02 03:39:53;;;;;;;16.73;9.77;;;12.60;99.90;;;;;;5106971;27;20186;-76
2023/09/02 03:42:19;;;;;;;14.60;9.73;;;12.60;99.90;;;;;;5082725;28;20123;-75
2023/09/02 03:44:45;;;;;;;14.55;10.35;;;12.70;99.90;;;;;;5086582;28;20118;-75
2023/09/02 03:47:11;;;;;;;17.27;11.18;;;12.70;99.90;;;;;;5091686;28;20043;-76
2023/09/02 03:49:36;;;;;;;13.57;9.40;;;12.70;99.90;;;;;;5098798;28;20033;-76
2023/09/02 03:52:03;;;;;;;15.10;9.55;;;12.70;99.90;;;;;;5088932;28;20101;-76
2023/09/02 03:54:29;;;;;;;15.50;10.00;;;12.80;99.90;;;;;;5084794;28;20040;-76
2023/09/02 03:56:54;;;;;;;14.38;10.60;;;12.80;99.90;;;;;;5085586;28;20029;-75
2023/09/02 03:59:20;;;;;;;13.07;9.43;;;12.80;99.90;;;;;;5090496;28;20065;-76
2023/09/02 04:01:46;;;;;;;13.57;10.05;;;12.80;99.90;;;;;;5091156;28;20039;-77
2023/09/02 04:04:12;;;;;;;15.13;10.13;;;12.80;99.90;;;;;;5088863;28;20032;-76
2023/09/02 04:06:40;;;;;;;15.30;9.82;;;12.80;99.90;;;;;;5087016;28;20397;-76
2023/09/02 04:09:07;;;;;;;14.90;10.13;;;12.80;99.90;;;;;;5082146;28;20032;-75
2023/09/02 04:11:33;;;;;;;15.88;10.68;;;12.80;99.90;;;;;;5089036;28;20081;-75
2023/09/02 04:13:59;;;;;;;16.88;10.43;;;12.90;99.90;;;;;;5090155;28;20040;-76
2023/09/02 04:16:25;;;;;;;17.25;10.77;;;12.90;99.90;;;;;;5080754;28;20045;-77
2023/09/02 04:18:51;;;;;;;12.70;9.43;;;12.90;99.90;;;;;;5112232;27;20536;-75
2023/09/02 04:21:17;;;;;;;14.95;9.50;;;12.90;99.90;;;;;;5086852;28;20045;-76
2023/09/02 04:23:43;;;;;;;14.85;10.15;;;12.90;99.90;;;;;;5091258;28;20355;-76
2023/09/02 04:26:09;;;;;;;18.90;11.10;;;13.00;99.90;;;;;;5075228;28;20048;-76
2023/09/02 04:28:35;;;;;;;13.90;9.90;;;12.90;99.90;;;;;;5084087;28;20051;-76
2023/09/02 04:31:00;;;;;;;17.88;10.93;;;12.90;99.90;;;;;;5095826;28;20549;-76
2023/09/02 04:33:26;;;;;;;14.48;9.98;;;13.00;99.90;;;;;;5082200;28;20089;-76
2023/09/02 04:35:52;;;;;;;14.55;9.43;;;13.00;99.90;;;;;;5086981;28;20086;-76
2023/09/02 04:38:18;;;;;;;15.18;10.43;;;13.00;99.90;;;;;;5082714;28;20061;-76
2023/09/02 04:40:44;;;;;;;13.85;10.25;;;13.00;99.90;;;;;;5084670;28;20053;-76
2023/09/02 04:43:11;;;;;;;17.10;10.77;;;13.00;99.90;;;;;;5091392;28;20096;-75
2023/09/02 04:45:39;;;;;;;16.02;11.60;;;13.00;99.90;;;;;;5093111;28;20077;-76
2023/09/02 04:48:06;;;;;;;15.90;10.63;;;13.00;99.90;;;;;;5079045;28;20074;-75
2023/09/02 04:50:33;;;;;;;16.70;10.30;;;13.00;99.90;;;;;;5095915;28;20048;-75
2023/09/02 04:52:59;;;;;;;14.50;10.32;;;13.00;99.90;;;;;;5086023;28;20040;-76
2023/09/02 04:55:26;;;;;;;16.27;10.85;;;13.00;99.90;;;;;;5073157;28;20075;-76
2023/09/02 04:57:52;;;;;;;15.70;11.63;;;13.00;99.90;;;;;;5087312;28;20046;-76
2023/09/02 05:00:18;;;;;;;17.48;10.13;;;13.00;99.90;;;;;;5090168;28;20048;-76
2023/09/02 05:02:46;;;;;;;14.93;10.40;;;13.00;99.90;;;;;;5089262;28;20505;-76
2023/09/02 05:05:14;;;;;;;17.53;11.13;;;13.00;99.90;;;;;;5081016;28;20150;-76
2023/09/02 05:07:40;;;;;;;16.83;10.63;;;13.00;99.90;;;;;;5074061;28;20052;-76
2023/09/02 05:10:06;;;;;;;15.90;11.27;;;13.00;99.90;;;;;;5091124;28;20028;-76
2023/09/02 05:12:33;;;;;;;14.88;10.35;;;13.00;99.90;;;;;;5090860;28;20108;-76
2023/09/02 05:15:03;;;;;;;16.80;11.17;;;13.00;99.90;;;;;;5087901;28;20079;-76
2023/09/02 05:17:30;;;;;;;17.50;11.88;;;13.00;99.90;;;;;;5082449;28;20032;-76
2023/09/02 05:19:56;;;;;;;18.60;12.32;;;13.00;99.90;;;;;;5117710;27;20070;-76
2023/09/02 05:22:22;;;;;;;18.83;11.73;;;13.00;99.90;;;;;;5087777;28;20059;-76
2023/09/02 05:24:48;;;;;;;16.35;12.48;;;13.00;99.90;;;;;;5095430;28;20044;-75
2023/09/02 05:27:14;;;;;;;16.85;11.82;;;13.00;99.90;;;;;;5085790;28;20044;-75
2023/09/02 05:29:39;;;;;;;17.88;11.27;;;13.00;99.90;;;;;;5081479;28;20050;-75
2023/09/02 05:32:05;;;;;;;17.75;12.02;;;13.10;99.90;;;;;;5086073;28;20398;-75
2023/09/02 05:34:31;;;;;;;16.88;12.15;;;13.00;99.90;;;;;;5086507;28;20033;-75
2023/09/02 05:36:56;;;;;;;16.55;12.43;;;13.00;99.90;;;;;;5078692;28;20048;-77
2023/09/02 05:39:22;;;;;;;15.30;11.07;;;13.00;99.90;;;;;;5085767;28;20127;-75
2023/09/02 05:41:48;;;;;;;16.67;11.68;;;13.00;99.90;;;;;;5090482;28;20093;-75
2023/09/02 05:44:13;;;;;;;17.55;11.65;;;13.00;99.90;;;;;;5089659;28;20137;-75
2023/09/02 05:46:39;;;;;;;18.88;12.75;;;13.10;99.90;;;;;;5088953;28;20040;-75
2023/09/02 05:49:04;;;;;;;19.90;12.25;;;13.10;99.90;;;;;;5089727;28;20032;-75
2023/09/02 05:51:30;;;;;;;17.13;12.63;;;13.10;99.90;;;;;;5080540;28;20086;-76
2023/09/02 05:53:57;;;;;;;18.02;11.77;;;13.20;99.90;;;;;;5087660;28;20482;-75
2023/09/02 05:56:23;;;;;;;13.25;10.57;;;13.20;99.90;;;;;;5094900;28;20066;-76
2023/09/02 05:58:49;;;;;;;15.18;11.98;;;13.30;99.90;;;;;;5087954;28;20044;-75
2023/09/02 06:01:14;;;;;;;16.00;12.10;;;13.30;99.90;;;;;;5091172;28;20419;-75
2023/09/02 06:03:42;;;;;;;18.65;11.57;;;13.40;99.90;;;;;;5083512;28;20075;-76
2023/09/02 06:06:11;;;;;;;15.88;10.98;;;13.50;99.90;;;;;;5076744;28;20387;-76
2023/09/02 06:08:36;;;;;;;15.73;12.57;;;13.50;99.90;;;;;;5087478;28;20505;-75
2023/09/02 06:11:03;;;;;;;19.67;12.88;;;13.60;99.90;;;;;;5086227;28;20075;-76
2023/09/02 06:13:29;;;;;;;19.83;13.43;;;13.70;99.90;;;;;;5084267;28;20055;-76
2023/09/02 06:16:02;;;;;;;17.17;12.68;;;14.00;99.90;;;;;;5088026;28;20051;-75
2023/09/02 06:18:29;;;;;;;19.25;12.57;;;14.10;99.90;;;;;;5090812;28;20040;-76
2023/09/02 06:20:54;;;;;;;18.08;11.98;;;14.30;99.90;;;;;;5081044;28;20131;-77
2023/09/02 06:23:20;;;;;;;20.80;13.20;;;14.30;99.90;;;;;;5087066;28;20147;-77
2023/09/02 06:25:55;;;;;;;18.10;12.98;;;14.40;99.90;;;;;;5085530;28;20036;-77
2023/09/02 06:28:21;;;;;;;19.67;13.55;;;14.40;99.90;;;;;;5088975;28;20098;-77
2023/09/02 06:30:47;;;;;;;21.42;13.18;;;14.40;99.90;;;;;;5089195;28;20513;-77
2023/09/02 06:33:12;;;;;;;18.27;12.07;;;14.50;99.90;;;;;;5092192;28;20478;-76
2023/09/02 06:35:38;;;;;;;19.60;13.20;;;14.60;99.90;;;;;;5103005;28;20119;-76
2023/09/02 06:38:04;;;;;;;19.05;12.90;;;14.80;99.90;;;;;;5084130;28;20037;-77
2023/09/02 06:40:30;;;;;;;21.40;13.25;;;15.10;99.90;;;;;;5092639;28;20036;-77
2023/09/02 06:42:55;;;;;;;18.98;12.77;;;15.40;99.90;;;;;;5091198;28;20043;-76
2023/09/02 06:45:21;;;;;;;21.70;12.85;;;15.70;99.90;;;;;;5091765;28;20385;-78
2023/09/02 06:47:48;;;;;;;18.77;12.68;;;16.00;99.90;;;;;;5092247;28;20634;-77
2023/09/02 06:50:14;;;;;;;17.65;11.27;;;16.30;99.90;;;;;;5083339;28;20044;-76
2023/09/02 06:52:39;;;;;;;18.38;11.88;;;16.50;99.90;;;;;;5083232;28;20063;-77
2023/09/02 06:55:06;;;;;;;18.10;11.77;;;16.70;99.90;;;;;;5076227;28;20445;-77
2023/09/02 06:57:31;;;;;;;17.45;11.93;;;16.80;99.90;;;;;;5083321;28;20059;-76
2023/09/02 06:59:57;;;;;;;16.27;11.35;;;16.80;99.90;;;;;;5087576;28;20491;-77
2023/09/02 07:02:22;;;;;;;16.20;11.38;;;16.80;99.90;;;;;;5079558;28;20051;-77
2023/09/02 07:04:49;;;;;;;30.65;12.52;;;16.80;99.90;;;;;;5073908;28;20045;-76
2023/09/02 07:07:15;;;;;;;17.55;11.30;;;16.90;99.90;;;;;;5083291;28;20036;-77
2023/09/02 07:09:40;;;;;;;15.30;11.02;;;17.00;99.90;;;;;;5081453;28;20109;-78
2023/09/02 07:12:06;;;;;;;16.50;10.75;;;17.00;99.90;;;;;;5089172;28;20033;-78
2023/09/02 07:14:32;;;;;;;17.13;10.90;;;17.10;99.90;;;;;;5084003;28;20036;-78
2023/09/02 07:16:58;;;;;;;17.70;10.60;;;17.20;99.90;;;;;;5081893;28;20417;-80
2023/09/02 07:19:24;;;;;;;14.35;10.57;;;17.20;99.90;;;;;;5075086;28;20529;-77
2023/09/02 07:21:50;;;;;;;17.90;10.80;;;17.30;99.90;;;;;;5075889;28;20060;-77
2023/09/02 07:24:16;;;;;;;17.98;11.60;;;17.30;99.90;;;;;;5075354;28;20040;-76
2023/09/02 07:26:42;;;;;;;17.38;11.75;;;17.40;99.90;;;;;;5090594;28;20158;-76
2023/09/02 07:29:07;;;;;;;16.45;10.60;;;17.40;99.90;;;;;;5079162;28;20051;-76
2023/09/02 07:31:33;;;;;;;14.15;10.45;;;17.50;99.90;;;;;;5089618;28;20040;-77
2023/09/02 07:33:59;;;;;;;17.73;11.07;;;17.60;99.90;;;;;;5093625;28;20165;-77
2023/09/02 07:36:25;;;;;;;16.17;10.57;;;17.70;99.90;;;;;;5094916;28;20092;-76
2023/09/02 07:38:51;;;;;;;20.17;10.63;;;17.80;99.90;;;;;;5073307;28;20119;-76
2023/09/02 07:41:16;;;;;;;17.13;11.13;;;17.90;99.90;;;;;;5090727;28;20041;-76
2023/09/02 07:43:42;;;;;;;14.55;10.20;;;17.90;99.90;;;;;;5077320;28;20051;-77
2023/09/02 07:46:10;;;;;;;14.70;9.93;;;18.00;99.90;;;;;;5090962;28;20040;-78
2023/09/02 07:48:36;;;;;;;14.05;9.65;;;18.10;99.90;;;;;;5088267;28;20448;-76
2023/09/02 07:51:02;;;;;;;15.63;10.80;;;18.10;99.90;;;;;;5094710;28;20146;-77
2023/09/02 07:53:28;;;;;;;13.52;9.10;;;18.10;99.90;;;;;;5074435;28;20406;-76
2023/09/02 07:55:54;;;;;;;16.45;10.48;;;18.10;99.90;;;;;;5088518;28;20125;-77
2023/09/02 07:58:20;;;;;;;16.08;8.98;;;18.20;99.90;;;;;;5081588;28;20498;-77
2023/09/02 08:00:46;;;;;;;15.60;10.07;;;18.30;99.90;;;;;;5089315;28;20439;-77
2023/09/02 08:03:12;;;;;;;15.23;10.00;;;18.40;99.90;;;;;;5081456;28;20052;-77
2023/09/02 08:05:39;;;;;;;14.90;10.13;;;18.50;99.90;;;;;;5075515;28;20113;-77
2023/09/02 08:08:06;;;;;;;16.75;10.40;;;18.60;99.90;;;;;;5076059;28;20044;-77
2023/09/02 08:10:33;;;;;;;16.55;11.07;;;18.70;99.90;;;;;;5098748;28;20068;-77
2023/09/02 08:12:59;;;;;;;12.67;9.67;;;18.70;99.90;;;;;;5094097;28;20185;-76
2023/09/02 08:15:25;;;;;;;16.52;10.65;;;18.80;99.90;;;;;;5092480;28;20755;-77
2023/09/02 08:17:51;;;;;;;12.60;9.32;;;18.70;99.90;;;;;;5083334;28;20047;-77
2023/09/02 08:20:17;;;;;;;14.98;9.27;;;18.80;99.90;;;;;;5095767;28;20398;-75
2023/09/02 08:22:43;;;;;;;14.65;10.32;;;18.90;99.90;;;;;;5083893;28;20063;-75
2023/09/02 08:25:12;;;;;;;14.10;10.00;;;19.00;99.90;;;;;;5076985;28;20072;-76
2023/09/02 08:27:37;;;;;;;16.77;8.95;;;19.10;99.90;;;;;;5090733;28;20040;-76
2023/09/02 08:30:04;;;;;;;14.00;8.75;;;19.30;99.90;;;;;;5079328;28;20043;-77
2023/09/02 08:32:30;;;;;;;12.55;7.75;;;19.40;99.90;;;;;;5095034;28;20060;-76
2023/09/02 08:34:56;;;;;;;15.45;8.85;;;19.50;99.90;;;;;;5096284;28;20040;-76
2023/09/02 08:37:22;;;;;;;12.57;8.30;;;19.60;99.90;;;;;;5082308;28;20046;-76
2023/09/02 08:39:47;;;;;;;13.32;9.30;;;19.70;99.90;;;;;;5083640;28;20041;-75
2023/09/02 08:42:18;;;;;;;11.85;8.30;;;19.70;99.90;;;;;;5119451;27;20541;-75
2023/09/02 08:44:46;;;;;;;13.45;8.55;;;19.80;99.90;;;;;;5077698;28;20079;-75
2023/09/02 08:47:11;;;;;;;13.55;8.27;;;19.90;99.90;;;;;;5092799;28;20049;-76
2023/09/02 08:49:38;;;;;;;13.77;8.25;;;20.00;99.90;;;;;;5084132;28;20067;-77
2023/09/02 08:52:08;;;;;;;14.25;6.90;;;20.10;99.90;;;;;;5097328;28;20040;-76
2023/09/02 08:54:34;;;;;;;15.02;8.32;;;20.10;99.90;;;;;;5095678;28;20044;-76
2023/09/02 08:57:01;;;;;;;14.13;8.43;;;20.10;99.90;;;;;;5091288;28;20381;-76
2023/09/02 08:59:28;;;;;;;15.05;8.77;;;20.10;99.90;;;;;;5082600;28;20036;-75
2023/09/02 09:01:56;;;;;;;11.97;8.47;;;20.20;99.90;;;;;;5092052;28;20043;-76
2023/09/02 09:04:22;;;;;;;16.38;8.40;;;20.40;99.90;;;;;;5083013;28;20036;-75
2023/09/02 09:06:49;;;;;;;15.18;8.43;;;20.40;99.90;;;;;;5076978;28;20087;-75
2023/09/02 09:09:17;;;;;;;14.70;8.50;;;20.50;99.90;;;;;;5077505;28;20075;-75
2023/09/02 09:11:43;;;;;;;12.93;8.52;;;20.50;99.90;;;;;;5087873;28;20040;-74
2023/09/02 09:14:17;;;;;;;14.77;8.23;;;20.50;99.90;;;;;;5082534;28;20036;-75
2023/09/02 09:16:43;;;;;;;10.30;7.97;;;20.60;99.90;;;;;;5084544;28;20043;-76
2023/09/02 09:19:09;;;;;;;12.30;8.15;;;20.70;99.90;;;;;;5088055;28;20047;-76
2023/09/02 09:21:35;;;;;;;14.18;8.70;;;20.80;99.90;;;;;;5094264;28;20060;-76
2023/09/02 09:24:02;;;;;;;16.25;8.95;;;20.90;99.90;;;;;;5107328;28;20054;-75
2023/09/02 09:26:30;;;;;;;18.23;9.18;;;21.00;99.90;;;;;;5088174;28;20033;-75
2023/09/02 09:28:59;;;;;;;12.30;8.32;;;21.10;99.90;;;;;;5082078;28;20482;-75
2023/09/02 09:31:26;;;;;;;13.68;8.30;;;21.10;99.90;;;;;;5084251;28;20490;-76
2023/09/02 09:34:00;;;;;;;13.13;8.13;;;20.90;99.90;;;;;;5082100;28;20040;-75
2023/09/02 09:36:29;;;;;;;13.43;8.50;;;21.00;99.90;;;;;;5078421;28;20052;-74
2023/09/02 09:39:03;;;;;;;12.32;7.53;;;21.10;99.90;;;;;;5095110;28;20128;-74
2023/09/02 09:41:29;;;;;;;13.20;8.70;;;21.00;99.90;;;;;;5076924;28;20029;-76
2023/09/02 09:44:16;;;;;;;15.20;8.25;;;21.00;99.90;;;;;;5089850;28;20448;-76
2023/09/02 09:46:52;;;;;;;13.15;7.43;;;21.30;99.90;;;;;;5076743;28;20055;-74
2023/09/02 09:49:26;;;;;;;12.18;7.00;;;21.60;99.90;;;;;;5082217;28;20037;-74
2023/09/02 09:52:09;;;;;;;10.98;7.93;;;21.80;99.90;;;;;;5083527;28;20073;-75
2023/09/02 09:54:50;;;;;;;11.00;8.88;;;22.00;99.90;;;;;;5079607;28;20124;-75
2023/09/02 09:57:35;;;;;;;14.07;8.00;;;22.10;99.90;;;;;;5098378;28;20367;-75
2023/09/02 10:00:03;;;;;;;14.10;7.95;;;22.20;99.90;;;;;;5100397;28;20074;-75
2023/09/02 10:02:28;;;;;;;14.43;9.10;;;22.20;99.90;;;;;;5083595;28;20044;-75
2023/09/02 10:04:56;;;;;;;12.52;7.93;;;22.50;99.90;;;;;;5083780;28;20487;-75
2023/09/02 10:07:25;;;;;;;;;;;22.60;99.90;;;;;;5076861;28;20052;-74
2023/09/02 10:09:54;;;;;;;10.70;7.57;;;22.60;99.90;;;;;;5089233;28;20010;-75
2023/09/02 10:12:20;;;;;;;14.40;8.05;;;22.70;99.90;;;;;;5090023;28;20063;-76
2023/09/02 10:14:47;;;;;;;16.05;9.35;;;22.80;99.90;;;;;;5098186;28;20072;-74
2023/09/02 10:17:14;;;;;;;12.77;8.23;;;22.70;99.90;;;;;;5082211;28;20032;-76
2023/09/02 10:19:40;;;;;;;14.40;7.50;;;22.50;99.90;;;;;;5085926;28;20040;-75
2023/09/02 10:22:06;;;;;;;13.35;7.35;;;22.40;99.90;;;;;;5094883;28;20071;-75
2023/09/02 10:24:44;;;;;;;14.18;7.70;;;22.10;99.90;;;;;;5095195;28;20083;-76
2023/09/02 10:27:21;;;;;;;14.77;8.18;;;21.90;99.90;;;;;;5094918;28;20175;-75
2023/09/02 10:29:57;;;;;;;15.68;6.95;;;21.60;99.90;;;;;;5096211;28;20086;-76
2023/09/02 10:32:45;;;;;;;10.95;7.15;;;21.40;99.90;;;;;;5091964;28;20044;-75
2023/09/02 10:35:19;;;;;;;8.50;6.87;;;21.40;99.90;;;;;;5090713;28;20052;-75
2023/09/02 10:37:54;;;;;;;9.77;6.60;;;21.20;99.90;;;;;;5094372;28;20299;-76
2023/09/02 10:40:23;;;;;;;12.90;7.28;;;21.20;99.90;;;;;;5087937;28;20076;-75
2023/09/02 10:42:50;;;;;;;10.43;5.90;;;21.30;99.90;;;;;;5080092;28;20051;-75
2023/09/02 10:45:17;;;;;;;11.43;5.88;;;21.70;99.90;;;;;;5094632;28;20044;-76
2023/09/02 10:47:44;;;;;;;11.95;5.70;;;22.00;99.90;;;;;;5089147;28;20043;-75
2023/09/02 10:50:11;;;;;;;10.52;6.05;;;22.30;99.90;;;;;;5087256;28;20092;-75
2023/09/02 10:52:37;;;;;;;10.77;6.38;;;22.60;99.90;;;;;;5084159;28;20041;-76
2023/09/02 10:55:10;;;;;;;9.45;4.93;;;22.80;99.90;;;;;;5094243;28;20043;-77
2023/09/02 10:57:51;;;;;;;9.07;5.65;;;23.10;99.90;;;;;;5094528;28;20489;-76
2023/09/02 11:00:24;;;;;;;11.88;5.32;;;23.30;99.90;;;;;;5091393;28;20394;-76
2023/09/02 11:02:54;;;;;;;9.18;5.65;;;23.20;99.90;;;;;;5116729;27;20086;-76
2023/09/02 11:05:21;;;;;;;10.25;5.63;;;23.00;99.90;;;;;;5082894;28;20131;-76
2023/09/02 11:07:48;;;;;;;8.93;5.30;;;22.60;99.90;;;;;;5083188;28;20044;-76
2023/09/02 11:10:15;;;;;;;10.32;6.35;;;22.20;99.90;;;;;;5090921;28;20040;-76
2023/09/02 11:12:59;;;;;;;12.18;6.30;;;21.90;99.90;;;;;;5076229;28;20045;-78
2023/09/02 11:15:26;;;;;;;7.50;5.43;;;22.10;99.90;;;;;;5085959;28;20093;-78
2023/09/02 11:17:52;;;;;;;10.90;6.15;;;22.20;99.90;;;;;;5086283;28;20155;-76
2023/09/02 11:20:26;;;;;;;8.70;5.47;;;22.50;99.90;;;;;;5084864;28;20122;-76
2023/09/02 11:23:09;;;;;;;10.65;5.95;;;22.80;99.90;;;;;;5056853;28;20056;-76
2023/09/02 11:25:42;;;;;;;8.55;5.88;;;22.90;99.90;;;;;;5075147;28;20397;-74
2023/09/02 11:28:16;;;;;;;7.78;5.07;;;23.00;99.90;;;;;;5085732;28;20422;-75
2023/09/02 11:31:13;;;;;;;8.48;5.00;;;23.20;99.90;;;;;;5077346;28;20163;-75
2023/09/02 11:33:41;;;;;;;10.18;5.22;;;23.30;99.90;;;;;;5084661;28;20083;-75
2023/09/02 11:36:11;;;;;;;7.25;4.65;;;23.50;99.40;;;;;;5085889;28;20055;-75
2023/09/02 11:38:37;;;;;;;7.18;5.07;;;23.60;98.60;;;;;;5084886;28;20504;-76
2023/09/02 11:41:03;;;;;;;9.00;4.40;;;23.60;98.60;;;;;;5080811;28;20040;-76
2023/09/02 11:43:32;;;;;;;8.23;5.03;;;23.70;98.40;;;;;;5075608;28;20495;-75
2023/09/02 11:45:59;;;;;;;9.07;4.68;;;23.90;97.40;;;;;;5083023;28;20035;-76
2023/09/02 11:48:27;;;;;;;6.85;3.92;;;24.00;98.10;;;;;;5087555;28;20059;-77
2023/09/02 11:50:53;;;;;;;;;;;23.80;98.50;;;;;;5091320;28;20454;-77
2023/09/02 11:53:19;;;;;;;7.97;4.20;;;23.50;98.20;;;;;;5079802;28;19927;-75
2023/09/02 11:55:44;;;;;;;5.97;3.60;;;23.00;98.90;;;;;;5081457;28;20040;-77
2023/09/02 11:58:14;;;;;;;5.82;3.60;;;22.60;99.60;;;;;;5086178;28;20040;-77
2023/09/02 12:00:43;;;;;;;7.15;4.05;;;22.20;99.90;;;;;;5081527;28;20093;-75
2023/09/02 12:03:23;;;;;;;5.75;3.75;;;21.90;99.90;;;;;;5089547;28;20041;-77
2023/09/02 12:05:52;;;;;;;7.70;4.10;;;22.10;99.90;;;;;;5084467;28;20032;-75
2023/09/02 12:08:18;;;;;;;9.82;3.28;;;22.40;99.90;;;;;;5077662;28;20044;-76
2023/09/02 12:10:46;;;;;;;6.18;3.60;;;22.80;99.90;;;;;;5088317;28;20041;-76
2023/09/02 12:13:12;;;;;;;6.57;3.55;;;23.00;99.70;;;;;;5083197;28;20051;-77
2023/09/02 12:15:38;;;;;;;7.00;3.45;;;23.00;99.90;;;;;;5085105;28;20044;-75
2023/09/02 12:18:05;;;;;;;8.00;3.10;;;23.10;99.60;;;;;;5078483;28;20644;-77
2023/09/02 12:20:31;;;;;;;7.55;2.85;;;23.10;99.50;;;;;;5084463;28;20031;-76
2023/09/02 12:22:57;;;;;;;5.07;2.80;;;23.20;99.70;;;;;;5089074;28;20515;-78
2023/09/02 12:25:24;;;;;;;6.00;2.83;;;23.20;99.00;;;;;;5091272;28;20048;-75
2023/09/02 12:28:12;;;;;;;6.03;3.15;;;23.20;99.30;;;;;;5080481;28;20040;-77
2023/09/02 12:30:39;;;;;;;6.27;2.87;;;23.30;98.80;;;;;;5071974;28;20045;-75
2023/09/02 12:33:05;;;;;;;7.90;2.97;;;23.40;99.10;;;;;;5088223;28;20512;-76
2023/09/02 12:35:31;;;;;;;5.38;3.05;;;23.30;99.10;;;;;;5087230;28;20506;-78
2023/09/02 12:38:05;;;;;;;6.50;2.78;;;23.10;99.30;;;;;;5088121;28;20491;-78